Time;durP1;ratioP1;P1;durP2;ratioP2;P2;SDS_P1;SDS_P2;PMS_P1;PMS_P2;Temp;Humidity;BMP_temperature;BMP_pressure;BME280_temperature;BME280_humidity;BME280_pressure;Samples;Min_cycle;Max_cycle;Signal;HPM_P1;HPM_P2
2023/10/23 00:00:25;;;;;;;3.30;2.50;;;12.80;93.60;;;;;;763864;180;26499;-90
2023/10/23 00:02:52;;;;;;;4.37;2.70;;;12.80;93.20;;;;;;759687;184;26525;-90
2023/10/23 00:05:19;;;;;;;4.10;2.70;;;12.70;93.10;;;;;;765706;185;26519;-90
2023/10/23 00:07:55;;;;;;;3.27;2.60;;;12.70;93.30;;;;;;765459;185;26507;-91
2023/10/23 00:10:22;;;;;;;3.80;3.20;;;12.70;93.20;;;;;;765544;185;26532;-91
2023/10/23 00:13:01;;;;;;;5.23;2.70;;;12.60;93.20;;;;;;765789;184;26519;-90
2023/10/23 00:15:27;;;;;;;6.20;2.87;;;12.60;93.00;;;;;;774639;177;26515;-89
2023/10/23 00:17:54;;;;;;;4.77;2.97;;;12.50;93.30;;;;;;774191;178;26471;-94
2023/10/23 00:20:21;;;;;;;4.77;2.80;;;12.50;93.50;;;;;;773308;177;26484;-89
2023/10/23 00:22:47;;;;;;;5.83;3.20;;;12.50;93.00;;;;;;772557;177;26487;-91
2023/10/23 00:25:14;;;;;;;6.37;3.33;;;12.50;93.60;;;;;;760264;182;26542;-91
2023/10/23 00:27:40;;;;;;;3.83;2.77;;;12.50;93.60;;;;;;733953;185;26537;-93
2023/10/23 00:30:07;;;;;;;3.73;2.80;;;12.60;93.50;;;;;;739655;187;26559;-90
2023/10/23 00:32:34;;;;;;;5.10;3.63;;;12.50;93.40;;;;;;739370;192;26555;-90
2023/10/23 00:35:00;;;;;;;5.40;3.17;;;12.50;93.80;;;;;;738829;191;26590;-89
2023/10/23 00:37:27;;;;;;;3.97;3.03;;;12.40;93.70;;;;;;746939;180;26517;-89
2023/10/23 00:39:54;;;;;;;4.00;2.80;;;12.30;93.50;;;;;;757485;180;26501;-89
2023/10/23 00:42:20;;;;;;;4.27;3.00;;;12.30;93.60;;;;;;756854;181;26579;-90
2023/10/23 00:44:47;;;;;;;5.67;3.13;;;12.30;93.60;;;;;;756305;184;26503;-90
2023/10/23 00:47:16;;;;;;;4.37;3.10;;;12.30;93.60;;;;;;765157;174;26532;-90
2023/10/23 00:49:40;;;;;;;3.30;2.53;;;12.20;93.80;;;;;;750843;183;26485;-89
2023/10/23 00:52:07;;;;;;;4.10;3.10;;;12.20;94.00;;;;;;765761;173;26523;-91
2023/10/23 00:54:33;;;;;;;2.97;2.67;;;12.20;94.50;;;;;;765821;174;26554;-90
2023/10/23 00:57:00;;;;;;;4.70;2.97;;;12.10;94.70;;;;;;764869;180;26474;-90
2023/10/23 00:59:26;;;;;;;4.30;2.50;;;12.10;94.10;;;;;;762800;182;26464;-90
2023/10/23 01:01:53;;;;;;;4.90;3.60;;;12.10;93.80;;;;;;765242;181;26455;-90
2023/10/23 01:04:20;;;;;;;5.90;3.17;;;12.20;93.70;;;;;;765427;175;26519;-91
2023/10/23 01:06:46;;;;;;;7.10;3.73;;;12.10;94.30;;;;;;745679;191;26614;-90
2023/10/23 01:09:13;;;;;;;5.57;3.70;;;12.00;94.60;;;;;;754178;183;26554;-90
2023/10/23 01:11:39;;;;;;;5.23;3.77;;;11.80;94.60;;;;;;766492;185;26492;-89
2023/10/23 01:14:09;;;;;;;7.97;4.43;;;11.60;94.70;;;;;;763731;182;26647;-89
2023/10/23 01:16:36;;;;;;;8.80;4.63;;;11.40;95.20;;;;;;767085;182;26513;-90
2023/10/23 01:19:03;;;;;;;5.90;4.73;;;11.40;95.40;;;;;;756925;182;26784;-89
2023/10/23 01:21:29;;;;;;;7.37;4.73;;;11.40;95.40;;;;;;751407;181;26522;-90
2023/10/23 01:23:56;;;;;;;5.43;3.97;;;11.40;95.70;;;;;;751596;181;26533;-90
2023/10/23 01:26:22;;;;;;;8.80;3.50;;;11.30;95.60;;;;;;751051;181;26499;-89
2023/10/23 01:28:49;;;;;;;7.83;4.13;;;11.30;95.60;;;;;;754460;181;26494;-90
2023/10/23 01:31:16;;;;;;;8.03;4.37;;;11.20;95.40;;;;;;765451;186;26525;-91
2023/10/23 01:33:42;;;;;;;7.17;5.10;;;11.20;95.90;;;;;;765227;183;26522;-92
2023/10/23 01:36:09;;;;;;;7.80;5.00;;;11.20;95.70;;;;;;765412;182;26516;-91
2023/10/23 01:38:35;;;;;;;7.27;5.10;;;11.30;95.80;;;;;;765590;182;26493;-90
2023/10/23 01:41:02;;;;;;;7.13;4.30;;;11.10;95.40;;;;;;765468;182;26509;-91
2023/10/23 01:43:29;;;;;;;6.13;4.10;;;11.10;95.50;;;;;;765520;182;26517;-89
2023/10/23 01:45:55;;;;;;;10.27;4.77;;;11.10;95.60;;;;;;765239;182;26509;-91
2023/10/23 01:48:22;;;;;;;9.13;6.03;;;11.20;95.30;;;;;;765212;184;26510;-92
2023/10/23 01:50:49;;;;;;;10.80;5.73;;;10.90;95.20;;;;;;764012;185;26541;-89
2023/10/23 01:53:15;;;;;;;10.67;5.63;;;10.90;95.50;;;;;;754724;184;26507;-91
2023/10/23 01:55:42;;;;;;;6.30;4.47;;;10.90;96.00;;;;;;761932;180;26535;-91
2023/10/23 01:58:08;;;;;;;5.40;4.47;;;10.90;95.70;;;;;;768010;180;26522;-91
2023/10/23 02:00:35;;;;;;;9.40;5.50;;;10.80;95.70;;;;;;770277;183;26512;-92
2023/10/23 02:08:51;;;;;;;7.80;4.40;;;10.90;95.70;;;;;;749254;176;26539;-86
2023/10/23 02:14:10;;;;;;;8.57;3.47;;;10.90;95.30;;;;;;803689;178;26462;-86
2023/10/23 02:19:59;;;;;;;8.90;4.40;;;10.90;94.70;;;;;;801762;174;26455;-88
2023/10/23 02:22:50;;;;;;;10.70;5.00;;;10.70;95.60;;;;;;805026;177;26507;-88
2023/10/23 02:25:39;;;;;;;9.27;4.80;;;10.70;95.30;;;;;;802688;179;26479;-87
2023/10/23 02:28:21;;;;;;;7.70;4.00;;;10.60;95.40;;;;;;802225;177;27072;-85
2023/10/23 02:31:05;;;;;;;13.13;6.67;;;10.60;95.40;;;;;;800753;178;26475;-85
2023/10/23 02:33:53;;;;;;;8.07;4.53;;;10.60;95.40;;;;;;801080;176;26570;-90
2023/10/23 02:39:12;;;;;;;9.83;5.40;;;10.60;95.40;;;;;;794528;178;27008;-86
2023/10/23 02:41:46;;;;;;;7.53;4.07;;;10.60;95.40;;;;;;801258;178;26510;-85
2023/10/23 02:47:04;;;;;;;10.23;5.00;;;10.20;95.60;;;;;;801121;175;26451;-88
2023/10/23 02:49:39;;;;;;;7.53;4.40;;;10.30;95.90;;;;;;804887;174;26452;-90
2023/10/23 02:52:15;;;;;;;15.37;6.07;;;10.40;95.80;;;;;;804697;175;26441;-89
2023/10/23 02:54:47;;;;;;;11.90;6.20;;;10.30;95.90;;;;;;805212;175;26453;-87
2023/10/23 02:57:16;;;;;;;8.53;5.87;;;10.30;96.00;;;;;;808095;177;26444;-87
2023/10/23 02:59:49;;;;;;;12.07;5.87;;;10.40;96.10;;;;;;806429;178;27061;-87
2023/10/23 03:02:23;;;;;;;13.40;6.20;;;10.40;95.80;;;;;;807383;178;26526;-87
2023/10/23 03:05:14;;;;;;;8.43;6.00;;;10.40;95.80;;;;;;806731;177;26517;-86
2023/10/23 03:08:14;;;;;;;12.90;6.10;;;10.30;95.80;;;;;;804428;177;26462;-86
2023/10/23 03:10:39;;;;;;;13.87;8.00;;;10.20;95.90;;;;;;805247;175;26504;-87
2023/10/23 03:15:49;;;;;;;8.50;6.20;;;10.20;96.40;;;;;;808088;177;27180;-88
2023/10/23 03:18:20;;;;;;;14.00;6.93;;;10.10;96.40;;;;;;809880;177;26541;-87
2023/10/23 03:21:01;;;;;;;8.53;6.73;;;10.20;96.30;;;;;;811729;176;26487;-88
2023/10/23 03:23:55;;;;;;;7.40;5.60;;;10.10;96.40;;;;;;803511;177;26471;-87
2023/10/23 03:26:47;;;;;;;11.43;6.30;;;10.20;96.50;;;;;;803310;177;27087;-89
2023/10/23 03:29:36;;;;;;;9.63;6.77;;;10.20;96.60;;;;;;806193;177;26452;-87
2023/10/23 03:32:15;;;;;;;12.90;6.73;;;10.20;96.90;;;;;;810949;177;26464;-88
2023/10/23 03:37:30;;;;;;;12.77;9.10;;;10.30;97.00;;;;;;796962;180;27023;-87
2023/10/23 03:40:13;;;;;;;15.57;9.63;;;10.30;97.00;;;;;;799265;177;26669;-87
2023/10/23 03:42:46;;;;;;;15.80;9.87;;;10.40;97.10;;;;;;797318;178;26503;-86
2023/10/23 03:45:28;;;;;;;13.30;8.30;;;10.40;97.10;;;;;;795013;177;27078;-87
2023/10/23 03:47:58;;;;;;;16.77;9.17;;;10.50;97.10;;;;;;773922;183;26496;-87
2023/10/23 03:50:36;;;;;;;15.77;8.13;;;10.50;96.90;;;;;;773007;185;26562;-88
2023/10/23 03:53:05;;;;;;;19.80;8.50;;;10.40;96.80;;;;;;759360;188;27057;-86
2023/10/23 03:55:54;;;;;;;11.57;7.50;;;10.20;96.80;;;;;;777038;182;26478;-88
2023/10/23 03:58:33;;;;;;;8.83;6.10;;;10.20;97.00;;;;;;761246;188;26528;-88
2023/10/23 04:01:18;;;;;;;11.97;6.27;;;10.10;97.20;;;;;;779483;183;27038;-85
2023/10/23 04:04:08;;;;;;;11.53;6.20;;;10.00;96.90;;;;;;779025;182;26499;-86
2023/10/23 04:09:48;;;;;;;12.13;6.50;;;10.20;97.30;;;;;;780415;182;26562;-89
2023/10/23 04:12:34;;;;;;;12.40;4.97;;;10.10;97.40;;;;;;773793;185;26490;-87
2023/10/23 04:15:11;;;;;;;10.37;5.87;;;10.10;97.10;;;;;;774304;184;26598;-88
2023/10/23 04:20:30;;;;;;;11.70;6.30;;;10.00;97.40;;;;;;787668;180;26526;-87
2023/10/23 04:22:58;;;;;;;14.83;7.87;;;10.00;97.70;;;;;;792182;179;26468;-88
2023/10/23 04:25:34;;;;;;;13.97;7.10;;;9.90;97.90;;;;;;777928;182;26498;-87
2023/10/23 04:28:03;;;;;;;13.77;7.87;;;9.90;97.90;;;;;;778940;183;26505;-87
2023/10/23 04:33:25;;;;;;;11.90;6.53;;;10.00;97.50;;;;;;788415;181;26500;-87
2023/10/23 04:36:13;;;;;;;;;;;;;;;;;;;;;
2023/10/23 04:38:49;;;;;;;9.80;5.40;;;9.90;97.90;;;;;;778807;183;26482;-88
2023/10/23 04:44:16;;;;;;;13.40;6.13;;;9.90;97.80;;;;;;767455;185;27046;-87
2023/10/23 04:46:56;;;;;;;8.27;4.60;;;9.80;97.70;;;;;;780606;183;26563;-89
2023/10/23 04:49:23;;;;;;;13.17;5.47;;;9.80;97.70;;;;;;793850;180;26656;-89
2023/10/23 04:51:49;;;;;;;8.53;5.03;;;9.90;97.80;;;;;;787858;180;26474;-89
2023/10/23 04:54:16;;;;;;;12.57;6.33;;;9.90;97.80;;;;;;757046;188;26523;-87
2023/10/23 04:56:58;;;;;;;12.87;5.27;;;9.90;97.80;;;;;;785147;182;26469;-89
2023/10/23 04:59:41;;;;;;;9.63;5.50;;;10.00;97.10;;;;;;777991;180;26493;-90
2023/10/23 05:02:22;;;;;;;;;;;;;;;;;;;;;
2023/10/23 05:05:07;;;;;;;9.57;5.80;;;9.70;97.50;;;;;;777175;184;26841;-88
2023/10/23 05:07:45;;;;;;;11.03;6.97;;;9.80;97.80;;;;;;777116;181;26460;-87
2023/10/23 05:10:36;;;;;;;;;;;;;;;;;;;;;
2023/10/23 05:13:09;;;;;;;11.10;7.07;;;9.80;98.00;;;;;;777509;181;26681;-88
2023/10/23 05:15:43;;;;;;;13.47;6.70;;;9.70;98.00;;;;;;782578;183;27245;-86
2023/10/23 05:18:15;;;;;;;15.13;7.13;;;9.80;98.40;;;;;;779574;183;26486;-87
2023/10/23 05:20:46;;;;;;;15.03;8.57;;;9.80;98.40;;;;;;780371;183;27006;-87
2023/10/23 05:26:10;;;;;;;;;;;;;;;;;;;;;
2023/10/23 05:34:16;;;;;;;16.00;8.80;;;9.70;98.60;;;;;;775108;183;26530;-87
2023/10/23 05:36:48;;;;;;;13.00;7.53;;;9.70;98.60;;;;;;782988;183;26482;-87
2023/10/23 05:39:23;;;;;;;12.90;8.67;;;9.60;98.50;;;;;;750657;190;26516;-86
2023/10/23 05:41:59;;;;;;;12.33;8.20;;;9.60;98.50;;;;;;788930;181;26490;-87
2023/10/23 05:44:32;;;;;;;13.60;8.10;;;9.50;98.50;;;;;;774750;181;26562;-88
2023/10/23 05:46:59;;;;;;;16.50;9.73;;;9.60;99.30;;;;;;781390;181;27243;-88
2023/10/23 05:49:34;;;;;;;15.10;8.47;;;9.60;99.40;;;;;;769386;184;27033;-88
2023/10/23 05:52:04;;;;;;;13.00;8.67;;;9.70;99.60;;;;;;792367;180;27032;-89
2023/10/23 05:54:40;;;;;;;15.23;10.50;;;9.60;99.30;;;;;;778539;181;26517;-86
2023/10/23 05:57:13;;;;;;;14.90;9.20;;;9.70;99.60;;;;;;775091;185;27025;-86
2023/10/23 05:59:54;;;;;;;12.07;8.50;;;9.70;99.40;;;;;;774547;185;26523;-86
2023/10/23 06:02:34;;;;;;;15.63;7.90;;;9.80;99.50;;;;;;770619;184;26541;-89
2023/10/23 06:05:01;;;;;;;18.40;10.13;;;9.80;99.40;;;;;;772169;184;27097;-87
2023/10/23 06:07:41;;;;;;;13.90;9.20;;;9.70;99.40;;;;;;772861;184;26501;-87
2023/10/23 06:10:14;;;;;;;18.77;9.90;;;9.70;99.70;;;;;;772324;185;27019;-86
2023/10/23 06:12:45;;;;;;;14.60;9.57;;;9.70;99.40;;;;;;771605;184;26538;-87
2023/10/23 06:15:20;;;;;;;13.10;7.60;;;9.80;99.60;;;;;;767466;185;26521;-87
2023/10/23 06:17:55;;;;;;;9.30;7.03;;;10.00;98.40;;;;;;766631;186;26495;-89
2023/10/23 06:23:00;;;;;;;12.13;7.40;;;10.00;98.30;;;;;;762028;185;27042;-85
2023/10/23 06:25:42;;;;;;;11.40;7.70;;;10.00;98.10;;;;;;764096;186;27027;-87
2023/10/23 06:28:14;;;;;;;13.03;7.43;;;10.10;98.20;;;;;;774462;185;26569;-87
2023/10/23 06:30:47;;;;;;;9.87;6.93;;;10.00;97.90;;;;;;775131;184;27304;-88
2023/10/23 06:33:29;;;;;;;8.33;6.50;;;10.00;98.10;;;;;;772911;182;26509;-86
2023/10/23 06:36:00;;;;;;;12.73;8.00;;;9.90;98.50;;;;;;768965;184;27085;-88
2023/10/23 06:38:43;;;;;;;;;;;;;;;;;;;;;
2023/10/23 06:41:15;;;;;;;11.40;7.67;;;10.00;98.00;;;;;;762451;185;27041;-88
2023/10/23 06:43:53;;;;;;;15.13;7.60;;;9.90;98.50;;;;;;762773;185;26490;-87
2023/10/23 06:46:28;;;;;;;11.37;6.63;;;9.90;98.50;;;;;;772669;180;26519;-88
2023/10/23 06:51:33;;;;;;;9.93;6.67;;;10.00;98.00;;;;;;763868;185;26510;-88
2023/10/23 06:54:26;;;;;;;;;;;;;;;;;;;;;
2023/10/23 06:57:06;;;;;;;9.93;6.63;;;9.90;98.60;;;;;;763299;185;26569;-86
2023/10/23 06:59:40;;;;;;;14.10;8.23;;;9.90;98.60;;;;;;763387;185;27039;-87
2023/10/23 07:02:21;;;;;;;12.20;7.73;;;10.00;98.00;;;;;;762328;183;26511;-88
2023/10/23 07:04:55;;;;;;;11.60;7.57;;;10.00;97.90;;;;;;767297;186;26514;-88
2023/10/23 07:07:33;;;;;;;14.20;8.30;;;10.00;97.90;;;;;;771275;186;26483;-86
2023/10/23 07:10:03;;;;;;;12.13;8.67;;;10.00;97.90;;;;;;772265;185;26590;-88
2023/10/23 07:12:42;;;;;;;15.03;7.87;;;10.10;98.00;;;;;;770847;181;26680;-85
2023/10/23 07:15:32;;;;;;;14.90;8.13;;;10.20;97.90;;;;;;769452;184;26558;-87
2023/10/23 07:18:11;;;;;;;11.17;6.90;;;10.20;97.50;;;;;;762662;188;26579;-87
2023/10/23 07:21:08;;;;;;;14.77;9.23;;;10.20;97.70;;;;;;762923;187;26558;-88
2023/10/23 07:26:36;;;;;;;15.10;9.93;;;10.20;97.80;;;;;;771421;185;26573;-86
2023/10/23 07:29:14;;;;;;;19.00;9.83;;;10.20;97.80;;;;;;771549;184;26500;-88
2023/10/23 07:32:04;;;;;;;14.13;9.50;;;10.40;97.30;;;;;;774447;185;26575;-86
2023/10/23 07:34:36;;;;;;;17.93;10.90;;;10.50;97.50;;;;;;774112;185;26609;-88
2023/10/23 07:37:12;;;;;;;18.53;11.27;;;10.50;97.30;;;;;;769599;184;27339;-87
2023/10/23 07:39:55;;;;;;;19.00;11.37;;;10.50;97.10;;;;;;773179;185;27023;-89
2023/10/23 07:42:25;;;;;;;18.57;11.10;;;10.50;97.50;;;;;;773646;184;26550;-87
2023/10/23 07:47:48;;;;;;;16.90;12.03;;;10.60;97.20;;;;;;763851;185;27031;-87
2023/10/23 07:50:26;;;;;;;16.47;12.13;;;10.60;97.00;;;;;;770840;184;27079;-85
2023/10/23 07:53:09;;;;;;;16.03;11.80;;;10.70;97.10;;;;;;767945;181;26577;-87
2023/10/23 07:55:57;;;;;;;17.47;11.10;;;10.70;97.10;;;;;;763513;183;26519;-88
2023/10/23 07:58:31;;;;;;;18.80;11.53;;;10.70;96.80;;;;;;768936;182;26578;-89
2023/10/23 08:01:05;;;;;;;16.70;11.80;;;10.70;96.90;;;;;;768443;183;26510;-88
2023/10/23 08:03:58;;;;;;;11.83;9.23;;;10.90;96.80;;;;;;769760;184;26502;-87
2023/10/23 08:06:25;;;;;;;14.87;10.43;;;10.90;96.10;;;;;;769794;176;26543;-90
2023/10/23 08:08:51;;;;;;;11.90;9.17;;;11.00;96.00;;;;;;781648;184;26510;-91
2023/10/23 08:11:18;;;;;;;12.70;9.63;;;11.10;96.00;;;;;;781037;183;27018;-91
2023/10/23 08:13:44;;;;;;;18.00;9.90;;;11.20;95.90;;;;;;774983;183;26512;-90
2023/10/23 08:16:11;;;;;;;16.77;11.33;;;11.20;96.10;;;;;;767724;184;28148;-89
2023/10/23 08:18:52;;;;;;;14.43;12.03;;;11.30;95.90;;;;;;766264;186;26508;-90
2023/10/23 08:21:28;;;;;;;13.90;11.43;;;11.40;95.30;;;;;;762587;187;27059;-88
2023/10/23 08:24:22;;;;;;;;;;;;;;;;;;;;;
2023/10/23 08:27:14;;;;;;;13.33;10.70;;;11.20;95.20;;;;;;761996;188;27843;-88
2023/10/23 08:29:56;;;;;;;14.10;10.60;;;11.10;95.30;;;;;;759175;181;26570;-87
2023/10/23 08:32:32;;;;;;;16.83;10.97;;;11.20;95.40;;;;;;764162;181;26502;-87
2023/10/23 08:35:04;;;;;;;16.57;12.43;;;11.10;95.10;;;;;;753177;180;26563;-88
2023/10/23 08:37:49;;;;;;;16.50;13.17;;;11.10;95.40;;;;;;763804;184;26586;-88
2023/10/23 08:40:39;;;;;;;15.40;11.87;;;11.10;95.30;;;;;;750063;191;26604;-89
2023/10/23 08:43:21;;;;;;;17.07;13.37;;;11.20;95.40;;;;;;749250;190;26548;-88
2023/10/23 08:48:39;;;;;;;13.97;11.97;;;11.40;95.60;;;;;;764848;188;26580;-89
2023/10/23 08:51:14;;;;;;;15.57;12.07;;;11.40;95.40;;;;;;753056;187;26541;-86
2023/10/23 08:57:15;;;;;;;;;;;;;;;;;;;;;
2023/10/23 08:59:52;;;;;;;15.33;9.20;;;11.70;95.00;;;;;;765754;188;26513;-81
2023/10/23 09:02:23;;;;;;;10.97;7.33;;;12.00;95.20;;;;;;762827;187;26525;-81
2023/10/23 09:04:49;;;;;;;8.03;7.23;;;12.90;92.60;;;;;;761414;187;26622;-82
2023/10/23 09:07:26;;;;;;;8.60;7.40;;;13.60;91.60;;;;;;761945;187;26554;-82
2023/10/23 09:10:55;;;;;;;8.90;7.27;;;13.60;90.90;;;;;;766092;186;26518;-87
2023/10/23 09:13:26;;;;;;;8.10;7.30;;;13.70;91.00;;;;;;751980;187;26534;-87
2023/10/23 09:16:09;;;;;;;8.90;7.30;;;12.60;91.50;;;;;;756646;187;26727;-87
2023/10/23 09:18:55;;;;;;;9.47;7.63;;;12.30;91.80;;;;;;760599;184;26516;-86
2023/10/23 09:21:52;;;;;;;8.77;7.20;;;12.20;93.10;;;;;;762769;186;27157;-87
2023/10/23 09:24:41;;;;;;;8.40;7.50;;;12.30;92.90;;;;;;761594;187;26585;-85
2023/10/23 09:27:26;;;;;;;8.33;7.43;;;12.30;92.10;;;;;;759745;187;26526;-87
2023/10/23 09:30:05;;;;;;;13.50;7.77;;;12.30;92.60;;;;;;759875;186;27130;-86
2023/10/23 11:31:56;;;;;;;3.30;2.70;;;15.40;79.80;;;;;;746931;171;26588;-90
2023/10/23 13:00:00;;;;;;;5.30;2.20;;;16.10;78.10;;;;;;728539;178;26499;-87
2023/10/23 13:02:26;;;;;;;4.47;1.97;;;16.20;79.00;;;;;;805648;177;26658;-87
2023/10/23 13:04:53;;;;;;;4.07;1.80;;;15.90;77.60;;;;;;788840;179;26484;-87
2023/10/23 13:07:20;;;;;;;5.63;2.10;;;15.70;79.90;;;;;;787317;179;26482;-90
2023/10/23 15:00:21;;;;;;;6.73;2.67;;;15.00;81.60;;;;;;744558;176;26714;-87
2023/10/23 15:02:48;;;;;;;16.03;4.70;;;14.90;81.20;;;;;;793563;180;27077;-90
2023/10/23 15:05:14;;;;;;;7.80;3.27;;;14.90;83.00;;;;;;793083;181;26493;-87
2023/10/23 15:07:41;;;;;;;7.43;3.77;;;14.90;84.40;;;;;;791568;179;26513;-86
2023/10/23 15:10:08;;;;;;;11.93;4.40;;;14.90;84.30;;;;;;790651;180;27032;-88
2023/10/23 15:12:35;;;;;;;7.97;3.53;;;14.90;84.40;;;;;;776307;183;26500;-86
2023/10/23 15:15:21;;;;;;;9.10;3.07;;;14.90;84.10;;;;;;777061;183;26520;-86
2023/10/23 15:57:03;;;;;;;14.90;4.40;;;13.80;91.50;;;;;;723182;175;26547;-89
2023/10/23 15:59:46;;;;;;;14.70;4.90;;;13.80;91.50;;;;;;765658;186;26566;-91
2023/10/23 16:05:04;;;;;;;9.27;4.13;;;13.50;92.30;;;;;;767226;184;26591;-87
2023/10/23 16:07:41;;;;;;;9.40;4.33;;;13.30;93.50;;;;;;758772;186;26536;-87
2023/10/23 16:15:57;;;;;;;;;;;;;;;;;;;;;
2023/10/23 16:18:25;;;;;;;11.23;4.50;;;13.20;94.20;;;;;;796442;179;26516;-85
2023/10/23 16:21:05;;;;;;;11.87;4.43;;;13.20;94.30;;;;;;787267;177;26488;-85
2023/10/23 16:23:34;;;;;;;19.73;5.50;;;13.10;94.10;;;;;;786494;182;26469;-87
2023/10/23 16:26:00;;;;;;;22.00;6.57;;;13.10;94.00;;;;;;774033;181;26530;-88
2023/10/23 16:28:36;;;;;;;15.13;5.40;;;13.10;95.00;;;;;;785850;182;26463;-88
2023/10/23 16:33:49;;;;;;;18.13;6.40;;;13.00;96.10;;;;;;788803;182;26470;-89
2023/10/23 16:39:46;;;;;;;16.50;6.33;;;12.90;96.60;;;;;;782643;179;26471;-88
2023/10/23 16:42:49;;;;;;;17.60;5.80;;;12.90;96.40;;;;;;783287;181;27105;-89
2023/10/23 16:51:13;;;;;;;14.63;5.67;;;12.80;96.20;;;;;;780830;182;27090;-89
2023/10/23 16:57:12;;;;;;;14.63;6.40;;;12.80;96.00;;;;;;784936;179;27062;-89
2023/10/23 17:02:52;;;;;;;19.07;6.50;;;12.80;96.20;;;;;;752114;171;26449;-91
2023/10/23 17:17:15;;;;;;;14.97;7.10;;;12.70;96.40;;;;;;750491;189;27268;-87
2023/10/23 17:22:28;;;;;;;13.83;6.20;;;12.70;96.40;;;;;;698359;177;26544;-91
2023/10/23 17:33:28;;;;;;;21.73;7.03;;;12.70;95.90;;;;;;715474;185;26550;-89
2023/10/23 17:35:53;;;;;;;17.07;6.50;;;12.60;96.00;;;;;;775001;185;27068;-89
2023/10/23 17:40:59;;;;;;;15.47;5.60;;;12.60;95.70;;;;;;808340;174;27047;-90
2023/10/23 17:43:26;;;;;;;12.33;4.80;;;12.60;95.80;;;;;;810121;177;26420;-88
2023/10/23 17:48:53;;;;;;;;;;;;;;;;;;;;;
2023/10/23 17:51:19;;;;;;;9.77;4.90;;;12.70;95.70;;;;;;794742;179;27022;-90
2023/10/23 17:53:49;;;;;;;11.30;4.50;;;12.80;95.20;;;;;;794765;180;26622;-90
2023/10/23 18:05:49;;;;;;;11.30;4.00;;;12.70;95.30;;;;;;794582;181;26456;-87
2023/10/23 18:08:16;;;;;;;12.83;4.40;;;12.60;95.20;;;;;;792557;181;26469;-90
2023/10/23 18:13:32;;;;;;;7.20;4.20;;;12.70;95.10;;;;;;792490;181;26459;-90
2023/10/23 18:16:13;;;;;;;10.50;4.20;;;12.70;94.80;;;;;;790205;181;26512;-90
2023/10/23 18:21:47;;;;;;;10.93;4.63;;;12.70;94.70;;;;;;734346;174;26526;-91
2023/10/23 18:24:49;;;;;;;;;;;;;;;;;;;;;
2023/10/23 18:27:58;;;;;;;8.63;4.47;;;12.60;95.10;;;;;;769464;184;26575;-89
2023/10/23 18:31:13;;;;;;;10.73;3.90;;;12.70;95.10;;;;;;763526;184;27165;-89
2023/10/23 18:33:23;;;;;;;12.27;4.17;;;12.70;95.00;;;;;;764074;181;26470;-91
2023/10/23 18:35:49;;;;;;;8.33;4.33;;;12.70;94.50;;;;;;773299;183;26462;-90
2023/10/23 18:38:16;;;;;;;10.07;3.77;;;12.70;94.60;;;;;;773730;184;26524;-90
2023/10/23 18:40:43;;;;;;;9.47;3.57;;;12.70;94.10;;;;;;773203;183;26461;-89
2023/10/23 18:43:09;;;;;;;6.23;3.47;;;12.70;94.20;;;;;;778101;183;26482;-91
2023/10/23 18:45:37;;;;;;;12.30;3.70;;;12.80;93.80;;;;;;775502;183;27021;-88
2023/10/23 18:48:04;;;;;;;9.80;5.47;;;12.80;93.90;;;;;;774835;181;26503;-90
2023/10/23 18:50:30;;;;;;;7.43;3.80;;;12.70;93.90;;;;;;773166;183;26472;-89
2023/10/23 18:52:59;;;;;;;9.93;4.27;;;12.60;94.30;;;;;;774694;185;26481;-88
2023/10/23 18:55:24;;;;;;;8.00;3.43;;;12.70;94.40;;;;;;775621;182;26561;-89
2023/10/23 18:57:50;;;;;;;7.80;4.07;;;12.70;94.10;;;;;;775625;183;26451;-89
2023/10/23 19:00:17;;;;;;;10.73;4.10;;;12.60;94.60;;;;;;775194;185;26479;-89
2023/10/23 19:05:35;;;;;;;9.27;3.80;;;12.60;94.70;;;;;;774718;185;27047;-90
2023/10/23 19:07:57;;;;;;;8.10;3.37;;;12.60;94.60;;;;;;773412;183;26455;-87
2023/10/23 19:10:24;;;;;;;11.77;4.03;;;12.70;94.30;;;;;;774210;181;26474;-91
2023/10/23 19:12:51;;;;;;;7.37;3.90;;;12.70;94.30;;;;;;773776;185;26454;-87
2023/10/23 19:15:17;;;;;;;9.67;4.07;;;12.70;94.30;;;;;;773459;184;26441;-92
2023/10/23 19:17:44;;;;;;;6.73;3.43;;;12.70;94.50;;;;;;773718;182;26457;-92
2023/10/23 19:20:12;;;;;;;6.60;3.57;;;12.70;94.30;;;;;;773273;172;26528;-89
2023/10/23 19:22:38;;;;;;;8.00;4.13;;;12.70;94.40;;;;;;772682;181;26445;-89
2023/10/23 19:28:03;;;;;;;8.97;3.87;;;12.70;94.00;;;;;;768468;184;26503;-88
2023/10/23 19:30:32;;;;;;;6.90;3.57;;;12.80;94.40;;;;;;778821;180;27113;-90
2023/10/23 19:32:59;;;;;;;5.70;3.50;;;12.80;93.90;;;;;;778732;180;27010;-87
2023/10/23 19:35:25;;;;;;;6.93;3.43;;;12.80;93.60;;;;;;778774;184;26460;-83
2023/10/23 19:37:52;;;;;;;9.30;3.37;;;12.80;93.40;;;;;;779121;185;27069;-87
2023/10/23 19:40:19;;;;;;;7.37;3.20;;;12.80;93.60;;;;;;779364;185;26476;-89
2023/10/23 19:42:50;;;;;;;6.57;3.53;;;12.80;93.40;;;;;;779463;185;26452;-87
2023/10/23 19:45:17;;;;;;;7.97;3.43;;;12.80;93.50;;;;;;779256;185;26455;-85
2023/10/23 19:47:47;;;;;;;10.40;3.53;;;12.80;93.90;;;;;;779203;180;26439;-87
2023/10/23 19:50:14;;;;;;;6.47;3.63;;;12.80;93.40;;;;;;779231;184;27035;-87
2023/10/23 19:52:41;;;;;;;9.63;3.53;;;12.80;93.50;;;;;;780430;182;26456;-89
2023/10/23 19:58:32;;;;;;;;;;;;;;;;;;;;;
2023/10/23 20:03:52;;;;;;;10.07;3.33;;;12.90;93.00;;;;;;775978;181;26453;-91
2023/10/23 20:06:18;;;;;;;7.53;3.73;;;12.90;93.20;;;;;;776117;171;26446;-93
2023/10/23 20:08:45;;;;;;;9.93;3.77;;;12.90;93.40;;;;;;775574;171;26467;-91
2023/10/23 20:11:12;;;;;;;7.03;3.50;;;12.90;92.90;;;;;;778830;171;26485;-91
2023/10/23 20:13:39;;;;;;;4.53;3.60;;;12.90;93.10;;;;;;777437;183;26459;-90
2023/10/23 20:16:05;;;;;;;7.60;3.30;;;12.90;93.40;;;;;;777439;185;26437;-88
2023/10/23 20:18:33;;;;;;;6.40;3.20;;;12.90;93.70;;;;;;773712;181;27048;-88
2023/10/23 20:20:58;;;;;;;7.33;3.43;;;12.90;93.50;;;;;;773543;183;26472;-85
2023/10/23 20:23:25;;;;;;;7.13;3.10;;;12.90;93.70;;;;;;774777;185;26479;-88
2023/10/23 20:25:52;;;;;;;7.33;3.13;;;12.90;93.30;;;;;;772576;181;27137;-87
2023/10/23 20:28:18;;;;;;;5.47;3.17;;;12.90;93.20;;;;;;773097;185;26513;-88
2023/10/23 20:30:45;;;;;;;6.07;3.67;;;12.90;93.30;;;;;;773095;184;26699;-87
2023/10/23 20:33:12;;;;;;;4.60;3.10;;;12.90;93.20;;;;;;771663;185;26465;-89
2023/10/23 20:35:39;;;;;;;8.07;3.30;;;12.90;93.20;;;;;;771594;186;27021;-87
2023/10/23 20:38:05;;;;;;;5.13;3.10;;;12.90;93.30;;;;;;771502;186;26512;-88
2023/10/23 20:40:32;;;;;;;8.67;3.80;;;12.90;93.00;;;;;;771930;181;27568;-88
2023/10/23 20:42:59;;;;;;;8.33;3.63;;;12.90;93.20;;;;;;771484;180;26458;-90
2023/10/23 20:45:26;;;;;;;9.87;3.50;;;12.90;93.20;;;;;;771504;186;26485;-91
2023/10/23 20:47:53;;;;;;;6.20;3.57;;;12.90;93.40;;;;;;773445;184;27028;-87
2023/10/23 20:50:22;;;;;;;6.17;3.10;;;12.90;93.10;;;;;;775629;185;27086;-88
2023/10/23 20:52:47;;;;;;;5.43;3.37;;;12.90;93.00;;;;;;772104;184;26454;-90
2023/10/23 20:55:14;;;;;;;4.47;3.07;;;12.90;93.20;;;;;;772282;184;26518;-89
2023/10/23 21:00:35;;;;;;;6.87;3.23;;;12.90;92.60;;;;;;774388;185;26504;-91
2023/10/23 21:03:02;;;;;;;8.30;3.57;;;12.90;92.70;;;;;;774755;185;26453;-88
2023/10/23 21:05:28;;;;;;;7.43;3.80;;;12.90;93.00;;;;;;777147;183;26986;-90
2023/10/23 21:11:36;;;;;;;;;;;;;;;;;;;;;
2023/10/23 21:50:15;;;;;;;8.17;3.57;;;13.10;92.40;;;;;;719768;185;26524;-89
2023/10/23 21:52:42;;;;;;;5.80;3.33;;;13.10;92.20;;;;;;782966;182;26502;-89
2023/10/23 21:55:09;;;;;;;5.00;3.93;;;13.10;92.20;;;;;;783064;183;26468;-89
2023/10/23 21:57:36;;;;;;;6.30;3.37;;;13.10;92.50;;;;;;782778;182;26487;-89
2023/10/23 22:00:08;;;;;;;5.33;3.50;;;13.10;92.10;;;;;;780360;184;26477;-89
2023/10/23 22:05:40;;;;;;;8.30;3.70;;;13.10;92.40;;;;;;753469;171;27024;-90
2023/10/23 22:52:51;;;;;;;6.27;3.40;;;13.20;92.10;;;;;;738493;177;26456;-88
2023/10/23 22:55:25;;;;;;;6.37;3.60;;;13.20;92.00;;;;;;791141;178;26428;-87
2023/10/23 22:58:00;;;;;;;6.63;3.67;;;13.20;92.20;;;;;;789411;182;26970;-88
2023/10/23 23:00:39;;;;;;;4.33;3.20;;;13.20;91.90;;;;;;789299;181;27002;-90
2023/10/23 23:03:16;;;;;;;6.57;3.90;;;13.20;92.00;;;;;;790214;180;27032;-87
2023/10/23 23:05:52;;;;;;;6.53;3.90;;;13.20;92.40;;;;;;797759;177;26434;-89
2023/10/23 23:08:19;;;;;;;7.40;3.80;;;13.20;92.10;;;;;;768128;178;26552;-87
2023/10/23 23:10:46;;;;;;;7.33;4.13;;;13.20;92.00;;;;;;765892;186;26602;-89
2023/10/23 23:13:13;;;;;;;7.77;4.03;;;13.30;92.20;;;;;;772844;183;27093;-87
2023/10/23 23:15:39;;;;;;;9.23;4.60;;;13.30;92.30;;;;;;773452;183;26492;-89